createdAt,value
2023-04-12T00:01:07.639Z,7.25
2023-04-12T00:03:34.920Z,8.20
2023-04-12T00:06:03.782Z,7.55
2023-04-12T00:08:35.492Z,7.82
2023-04-12T00:11:04.291Z,8.40
2023-04-12T00:13:31.796Z,8.13
2023-04-12T00:16:00.783Z,7.68
2023-04-12T00:18:28.570Z,8.50
2023-04-12T00:20:56.407Z,8.10
2023-04-12T00:23:23.579Z,8.00
2023-04-12T00:25:50.832Z,7.32
2023-04-12T00:28:18.209Z,8.40
2023-04-12T00:30:46.116Z,7.28
2023-04-12T00:33:13.320Z,7.38
2023-04-12T00:35:40.523Z,7.45
2023-04-12T00:38:11.092Z,7.57
2023-04-12T00:40:44.194Z,7.10
2023-04-12T00:45:47.312Z,6.60
2023-04-12T00:48:19.256Z,6.72
2023-04-12T00:50:47.547Z,6.95
2023-04-12T00:53:15.808Z,6.63
2023-04-12T00:55:45.714Z,7.03
2023-04-12T00:58:14.714Z,7.25
2023-04-12T01:00:42.885Z,7.57
2023-04-12T01:03:12.058Z,6.85
2023-04-12T01:06:10.556Z,6.85
2023-04-12T01:09:30.468Z,6.63
2023-04-12T01:12:25.175Z,6.93
2023-04-12T01:15:06.642Z,7.00
2023-04-12T01:17:48.160Z,7.20
2023-04-12T01:20:23.785Z,7.07
2023-04-12T01:23:14.779Z,8.15
2023-04-12T01:25:48.685Z,7.38
2023-04-12T01:28:22.644Z,6.97
2023-04-12T01:30:52.717Z,7.40
2023-04-12T01:33:22.301Z,7.25
2023-04-12T01:35:52.820Z,7.25
2023-04-12T01:38:21.891Z,7.25
2023-04-12T01:40:49.187Z,7.18
2023-04-12T01:43:16.314Z,7.22
2023-04-12T01:45:43.503Z,8.02
2023-04-12T01:48:12.446Z,7.40
2023-04-12T01:51:00.875Z,7.38
2023-04-12T01:53:49.158Z,7.65
2023-04-12T01:56:20.287Z,6.65
2023-04-12T01:58:50.844Z,6.93
2023-04-12T02:01:19.599Z,6.90
2023-04-12T02:03:50.334Z,7.13
2023-04-12T02:06:23.004Z,7.40
2023-04-12T02:08:50.444Z,7.40
2023-04-12T02:11:18.649Z,7.50
2023-04-12T02:13:45.822Z,7.53
2023-04-12T02:16:14.363Z,7.30
2023-04-12T02:18:42.499Z,7.63
2023-04-12T02:21:09.808Z,7.15
2023-04-12T02:23:36.765Z,6.78
2023-04-12T02:26:04.020Z,6.97
2023-04-12T02:28:31.472Z,7.32
2023-04-12T02:30:58.944Z,7.13
2023-04-12T02:33:28.271Z,6.93
2023-04-12T02:35:57.334Z,6.88
2023-04-12T02:38:24.498Z,6.68
2023-04-12T02:40:51.677Z,7.05
2023-04-12T02:43:19.080Z,8.02
2023-04-12T02:45:48.478Z,8.15
2023-04-12T02:48:15.881Z,8.02
2023-04-12T02:50:42.910Z,7.80
2023-04-12T02:53:10.341Z,8.50
2023-04-12T02:55:39.001Z,8.82
2023-04-12T02:58:06.109Z,8.40
2023-04-12T03:00:33.790Z,8.73
2023-04-12T03:03:03.082Z,8.13
2023-04-12T03:05:30.348Z,8.10
2023-04-12T03:07:57.544Z,7.22
2023-04-12T03:10:24.936Z,7.18
2023-04-12T03:12:51.977Z,7.68
2023-04-12T03:15:19.103Z,7.10
2023-04-12T03:17:46.291Z,7.30
2023-04-12T03:20:14.646Z,7.80
2023-04-12T03:22:41.904Z,8.32
2023-04-12T03:25:10.473Z,7.65
2023-04-12T03:27:37.561Z,8.68
2023-04-12T03:30:06.696Z,7.90
2023-04-12T03:32:34.140Z,7.25
2023-04-12T03:35:01.277Z,7.47
2023-04-12T03:37:28.568Z,7.60
2023-04-12T03:39:55.640Z,7.35
2023-04-12T03:42:32.424Z,7.30
2023-04-12T03:45:01.848Z,7.18
2023-04-12T03:47:29.402Z,6.88
2023-04-12T03:50:10.165Z,7.28
2023-04-12T03:52:38.271Z,7.10
2023-04-12T03:55:07.868Z,7.65
2023-04-12T03:57:35.616Z,7.75
2023-04-12T04:00:02.832Z,7.60
2023-04-12T04:02:31.922Z,7.90
2023-04-12T04:04:59.470Z,7.53
2023-04-12T04:07:27.134Z,7.15
2023-04-12T04:09:57.096Z,7.60
2023-04-12T04:12:24.453Z,7.30
2023-04-12T04:14:51.615Z,8.48
2023-04-12T04:17:19.274Z,8.02
2023-04-12T04:19:46.422Z,7.35
2023-04-12T04:22:14.000Z,7.22
2023-04-12T04:24:41.252Z,8.02
2023-04-12T04:27:08.413Z,6.97
2023-04-12T04:29:36.933Z,7.70
2023-04-12T04:32:04.178Z,7.35
2023-04-12T04:34:31.897Z,7.10
2023-04-12T04:36:58.993Z,7.35
2023-04-12T04:39:27.582Z,7.57
2023-04-12T04:41:55.128Z,7.72
2023-04-12T04:44:22.533Z,7.38
2023-04-12T04:46:49.854Z,7.63
2023-04-12T04:49:17.225Z,7.95
2023-04-12T04:51:44.350Z,8.13
2023-04-12T04:54:14.171Z,7.63
2023-04-12T04:56:41.770Z,7.68
2023-04-12T04:59:08.922Z,7.55
2023-04-12T05:01:36.738Z,7.75
2023-04-12T05:04:04.360Z,8.40
2023-04-12T05:06:31.838Z,8.85
2023-04-12T05:09:00.996Z,8.07
2023-04-12T05:11:28.179Z,8.35
2023-04-12T05:13:55.532Z,8.98
2023-04-12T05:16:23.146Z,8.30
2023-04-12T05:18:50.347Z,9.10
2023-04-12T05:21:17.458Z,9.07
2023-04-12T05:23:47.472Z,10.48
2023-04-12T05:26:14.655Z,9.63
2023-04-12T05:28:41.708Z,9.82
2023-04-12T05:31:09.651Z,9.30
2023-04-12T05:33:37.570Z,8.98
2023-04-12T05:36:05.774Z,9.07
2023-04-12T05:38:33.258Z,9.02
2023-04-12T05:55:06.242Z,9.43
2023-04-12T05:57:33.405Z,8.68
2023-04-12T06:00:00.380Z,9.15
2023-04-12T06:02:27.457Z,8.90
2023-04-12T06:04:55.832Z,9.27
2023-04-12T06:07:22.975Z,9.77
2023-04-12T06:09:50.126Z,10.48
2023-04-12T06:12:17.142Z,9.10
2023-04-12T06:14:44.007Z,9.40
2023-04-12T06:17:11.328Z,9.40
2023-04-12T06:19:38.204Z,9.60
2023-04-12T06:22:05.207Z,9.98
2023-04-12T06:24:32.803Z,9.27
2023-04-12T06:26:59.706Z,9.23
2023-04-12T06:29:26.593Z,8.88
2023-04-12T06:31:53.611Z,8.95
2023-04-12T06:34:20.591Z,8.38
2023-04-12T06:36:47.860Z,9.25
2023-04-12T06:39:17.069Z,9.40
2023-04-12T06:41:44.087Z,10.32
2023-04-12T06:44:11.020Z,11.73
2023-04-12T06:46:37.970Z,34.38
2023-04-12T06:49:04.892Z,16.83
2023-04-12T06:51:31.862Z,10.02
2023-04-12T06:53:58.855Z,11.02
2023-04-12T06:56:25.847Z,11.48
2023-04-12T06:58:52.844Z,15.07
2023-04-12T07:01:19.846Z,17.92
2023-04-12T07:03:46.931Z,13.57
2023-04-12T07:06:23.616Z,12.32
2023-04-12T07:08:52.751Z,12.05
2023-04-12T07:11:22.676Z,10.27
2023-04-12T07:13:51.091Z,10.15
2023-04-12T07:16:18.552Z,11.63
2023-04-12T07:18:45.698Z,10.18
2023-04-12T07:21:17.460Z,8.85
2023-04-12T07:23:44.771Z,11.35
2023-04-12T07:26:11.761Z,15.93
2023-04-12T07:28:39.310Z,9.63
2023-04-12T07:31:07.486Z,8.60
2023-04-12T07:33:36.597Z,9.75
2023-04-12T07:36:04.938Z,10.45
2023-04-12T07:38:31.946Z,11.10
2023-04-12T07:40:58.916Z,11.35
2023-04-12T07:43:26.071Z,10.32
2023-04-12T07:45:55.891Z,10.60
2023-04-12T07:48:23.130Z,11.85
2023-04-12T07:50:50.672Z,11.07
2023-04-12T07:53:29.169Z,11.95
2023-04-12T07:55:57.112Z,13.05
2023-04-12T07:58:24.928Z,13.38
2023-04-12T08:00:53.837Z,13.20
2023-04-12T08:03:20.881Z,13.15
2023-04-12T08:05:53.354Z,15.23
2023-04-12T08:08:24.415Z,15.68
2023-04-12T08:10:52.474Z,17.58
2023-04-12T08:13:20.710Z,18.10
2023-04-12T08:15:48.028Z,18.65
2023-04-12T08:18:15.805Z,18.77
2023-04-12T08:20:44.199Z,18.48
2023-04-12T08:23:12.059Z,17.77
2023-04-12T08:25:39.584Z,17.83
2023-04-12T08:28:09.127Z,17.13
2023-04-12T08:30:36.755Z,16.83
2023-04-12T08:33:04.143Z,15.88
2023-04-12T08:35:31.714Z,19.63
2023-04-12T08:38:00.299Z,20.20
2023-04-12T08:40:27.303Z,19.00
2023-04-12T08:42:55.170Z,18.40
2023-04-12T08:45:29.187Z,18.13
2023-04-12T08:47:56.427Z,18.00
2023-04-12T08:50:26.871Z,17.42
2023-04-12T08:52:54.368Z,17.10
2023-04-12T08:55:21.422Z,16.13
2023-04-12T08:57:49.144Z,15.27
2023-04-12T09:00:17.910Z,15.70
2023-04-12T09:02:47.409Z,17.38
2023-04-12T09:05:15.534Z,13.70
2023-04-12T09:07:42.828Z,13.68
2023-04-12T09:10:09.812Z,13.25
2023-04-12T09:12:47.154Z,13.38
2023-04-12T09:15:17.725Z,12.52
2023-04-12T09:17:44.864Z,13.25
2023-04-12T09:20:17.877Z,12.95
2023-04-12T09:25:15.674Z,12.68
2023-04-12T09:27:51.036Z,13.32
2023-04-12T09:30:19.888Z,13.43
2023-04-12T09:32:49.724Z,14.05
2023-04-12T09:35:17.097Z,13.75
2023-04-12T09:37:44.063Z,13.68
2023-04-12T09:40:11.942Z,14.48
2023-04-12T09:42:53.859Z,13.95
2023-04-12T09:45:25.212Z,13.93
2023-04-12T09:47:54.080Z,13.75
2023-04-12T09:50:34.932Z,13.75
2023-04-12T09:53:04.272Z,14.10
2023-04-12T09:55:32.802Z,13.43
2023-04-12T09:58:04.642Z,13.48
2023-04-12T10:00:34.456Z,13.15
2023-04-12T10:03:01.984Z,13.80
2023-04-12T10:05:31.830Z,13.95
2023-04-12T10:07:59.906Z,14.25
2023-04-12T10:10:27.221Z,15.68
2023-04-12T10:12:55.041Z,15.88
2023-04-12T10:15:22.423Z,14.07
2023-04-12T10:17:54.146Z,14.50
2023-04-12T10:20:24.829Z,14.18
2023-04-12T10:25:27.239Z,14.07
2023-04-12T10:30:30.575Z,14.25
2023-04-12T10:33:03.716Z,14.45
2023-04-12T10:36:04.027Z,14.48
2023-04-12T10:38:44.635Z,13.65
2023-04-12T10:41:17.259Z,13.77
2023-04-12T10:43:49.735Z,14.65
2023-04-12T10:46:37.475Z,15.50
2023-04-12T10:49:17.754Z,15.38
2023-04-12T10:52:05.708Z,15.50
2023-04-12T10:54:37.101Z,14.73
2023-04-12T10:57:06.624Z,15.55
2023-04-12T10:59:57.470Z,16.02
2023-04-12T11:02:24.996Z,16.35
2023-04-12T11:05:10.348Z,16.08
2023-04-12T11:07:42.879Z,17.92
2023-04-12T11:10:15.813Z,16.93
2023-04-12T11:12:57.258Z,16.80
2023-04-12T11:15:28.977Z,17.35
2023-04-12T11:17:58.147Z,17.30
2023-04-12T11:20:27.892Z,17.52
2023-04-12T11:22:55.701Z,17.30
2023-04-12T11:25:23.082Z,17.98
2023-04-12T11:27:52.430Z,17.10
2023-04-12T11:30:20.254Z,17.83
2023-04-12T11:32:47.814Z,17.10
2023-04-12T11:35:20.405Z,17.65
2023-04-12T11:37:47.846Z,17.20
2023-04-12T11:40:15.076Z,17.98
2023-04-12T11:42:42.367Z,18.02
2023-04-12T11:45:15.836Z,18.73
2023-04-12T11:47:46.149Z,19.15
2023-04-12T11:50:13.511Z,18.15
2023-04-12T11:52:41.476Z,17.88
2023-04-12T11:55:11.378Z,18.60
2023-04-12T11:57:39.569Z,18.30
2023-04-12T12:00:07.486Z,18.45
2023-04-12T12:02:43.717Z,18.95
2023-04-12T12:05:17.199Z,18.80
2023-04-12T12:07:44.517Z,18.50
2023-04-12T12:10:13.357Z,19.10
2023-04-12T12:12:44.966Z,20.05
2023-04-12T12:15:15.384Z,21.70
2023-04-12T12:17:42.473Z,21.83
2023-04-12T12:20:21.512Z,19.08
2023-04-12T12:22:49.986Z,20.17
2023-04-12T12:25:20.506Z,19.63
2023-04-12T12:27:51.360Z,19.80
2023-04-12T12:30:20.414Z,19.60
2023-04-12T12:32:52.587Z,20.80
2023-04-12T12:35:19.805Z,20.60
2023-04-12T12:37:56.202Z,20.40
2023-04-12T12:40:34.176Z,23.25
2023-04-12T12:43:01.416Z,20.83
2023-04-12T12:45:31.570Z,21.95
2023-04-12T12:48:04.713Z,21.58
2023-04-12T12:50:34.944Z,21.38
2023-04-12T12:53:03.646Z,22.05
2023-04-12T12:55:31.561Z,24.65
2023-04-12T13:00:29.946Z,22.17
2023-04-12T13:02:58.648Z,20.75
2023-04-12T13:05:27.282Z,19.90
2023-04-12T13:07:54.327Z,20.10
2023-04-12T13:10:21.691Z,19.95
2023-04-12T13:12:48.676Z,19.15
2023-04-12T13:17:45.744Z,19.90
2023-04-12T13:20:13.181Z,18.98
2023-04-12T13:22:40.488Z,18.35
2023-04-12T13:25:09.186Z,21.73
2023-04-12T13:27:36.640Z,18.77
2023-04-12T13:30:04.749Z,20.17
2023-04-12T13:32:31.849Z,15.73
2023-04-12T13:34:58.906Z,15.48
2023-04-12T13:37:26.031Z,15.63
2023-04-12T13:39:53.176Z,15.07
2023-04-12T13:42:20.266Z,18.45
2023-04-12T13:44:48.705Z,15.68
2023-04-12T13:47:17.984Z,14.27
2023-04-12T13:49:45.421Z,14.68
2023-04-12T13:52:13.247Z,16.65
2023-04-12T13:54:41.086Z,14.85
2023-04-12T13:57:09.328Z,14.57
2023-04-12T13:59:36.327Z,14.13
2023-04-12T14:02:03.601Z,15.57
2023-04-12T14:04:32.179Z,15.63
2023-04-12T14:06:59.640Z,15.48
2023-04-12T14:09:28.175Z,15.63
2023-04-12T14:11:57.905Z,15.35
2023-04-12T14:14:27.279Z,16.23
2023-04-12T14:16:58.965Z,15.57
2023-04-12T14:19:26.945Z,16.42
2023-04-12T14:21:54.254Z,16.67
2023-04-12T14:24:21.934Z,16.42
2023-04-12T14:26:51.202Z,17.15
2023-04-12T14:29:18.235Z,15.73
2023-04-12T14:31:45.571Z,14.77
2023-04-12T14:34:13.497Z,13.07
2023-04-12T14:36:40.779Z,12.93
2023-04-12T14:39:11.198Z,13.98
2023-04-12T14:41:40.717Z,14.38
2023-04-12T14:44:07.780Z,14.90
2023-04-12T14:46:34.791Z,16.10
2023-04-12T14:49:01.858Z,14.98
2023-04-12T14:51:29.957Z,12.40
2023-04-12T14:53:58.592Z,13.60
2023-04-12T14:56:30.385Z,14.68
2023-04-12T14:59:02.636Z,13.30
2023-04-12T15:01:30.021Z,10.70
2023-04-12T15:03:57.544Z,10.50
2023-04-12T15:06:30.545Z,9.93
2023-04-12T15:08:57.596Z,10.13
2023-04-12T15:11:27.234Z,9.98
2023-04-12T15:13:55.647Z,10.45
2023-04-12T15:16:23.498Z,10.23
2023-04-12T15:18:52.020Z,10.05
2023-04-12T15:21:19.214Z,10.60
2023-04-12T15:23:46.406Z,10.68
2023-04-12T15:26:14.459Z,10.50
2023-04-12T15:28:42.492Z,8.85
2023-04-12T15:31:11.959Z,8.15
2023-04-12T15:33:39.047Z,7.18
2023-04-12T15:36:06.708Z,6.93
2023-04-12T15:38:42.596Z,6.90
2023-04-12T15:41:09.828Z,6.45
2023-04-12T15:43:37.388Z,7.13
2023-04-12T15:46:04.923Z,7.93
2023-04-12T15:48:32.395Z,9.95
2023-04-12T15:51:00.269Z,10.75
2023-04-12T15:53:27.710Z,29.58
2023-04-12T15:55:55.458Z,28.23
2023-04-12T15:58:27.322Z,7.90
2023-04-12T16:00:55.082Z,8.20
2023-04-12T16:03:26.510Z,8.35
2023-04-12T16:05:54.332Z,11.35
2023-04-12T16:08:22.389Z,8.90
2023-04-12T16:10:50.679Z,8.68
2023-04-12T16:13:18.870Z,8.90
2023-04-12T16:15:47.240Z,8.95
2023-04-12T16:18:14.374Z,17.55
2023-04-12T16:20:41.425Z,11.73
2023-04-12T16:23:09.311Z,7.05
2023-04-12T16:25:36.515Z,6.10
2023-04-12T16:28:04.218Z,6.03
2023-04-12T16:30:32.434Z,6.13
2023-04-12T16:33:00.334Z,6.03
2023-04-12T16:35:27.824Z,7.65
2023-04-12T16:37:55.582Z,9.23
2023-04-12T16:40:24.685Z,8.63
2023-04-12T16:42:52.065Z,7.70
2023-04-12T16:45:19.820Z,8.10
2023-04-12T16:47:47.733Z,8.95
2023-04-12T16:50:15.516Z,8.35
2023-04-12T16:52:42.773Z,8.80
2023-04-12T16:55:12.494Z,8.60
2023-04-12T16:57:41.855Z,8.75
2023-04-12T17:00:19.338Z,8.63
2023-04-12T17:02:51.284Z,8.10
2023-04-12T17:05:20.077Z,8.70
2023-04-12T17:07:51.453Z,8.93
2023-04-12T17:10:21.367Z,8.05
2023-04-12T17:12:51.662Z,8.60
2023-04-12T17:15:22.139Z,9.18
2023-04-12T17:17:59.712Z,9.93
2023-04-12T17:20:27.303Z,10.90
2023-04-12T17:22:55.567Z,13.48
2023-04-12T17:25:25.142Z,11.48
2023-04-12T17:27:54.343Z,11.25
2023-04-12T17:30:21.681Z,10.85
2023-04-12T17:32:48.814Z,10.40
2023-04-12T17:35:18.877Z,11.35
2023-04-12T17:37:46.951Z,12.43
2023-04-12T17:40:15.281Z,13.13
2023-04-12T17:42:44.164Z,13.52
2023-04-12T17:45:14.017Z,13.65
2023-04-12T17:47:42.604Z,12.95
2023-04-12T17:50:11.809Z,12.35
2023-04-12T17:52:39.370Z,12.90
2023-04-12T17:55:09.397Z,13.18
2023-04-12T17:57:36.816Z,13.30
2023-04-12T18:00:14.367Z,13.70
2023-04-12T18:02:43.927Z,14.07
2023-04-12T18:05:12.427Z,15.90
2023-04-12T18:07:43.763Z,15.68
2023-04-12T18:10:15.567Z,15.18
2023-04-12T18:12:45.213Z,15.55
2023-04-12T18:15:12.769Z,16.15
2023-04-12T18:17:39.978Z,19.40
2023-04-12T18:20:10.999Z,21.30
2023-04-12T18:22:38.882Z,21.13
2023-04-12T18:25:10.247Z,20.55
2023-04-12T18:27:37.457Z,22.92
2023-04-12T18:30:05.444Z,22.10
2023-04-12T18:32:32.525Z,19.60
2023-04-12T18:34:59.661Z,18.50
2023-04-12T18:37:27.826Z,34.53
2023-04-12T18:39:55.575Z,45.75
2023-04-12T18:42:22.674Z,59.55
2023-04-12T18:44:50.258Z,55.58
2023-04-12T18:47:19.798Z,44.50
2023-04-12T18:49:48.007Z,38.20
2023-04-12T18:52:15.066Z,34.90
2023-04-12T18:54:42.105Z,35.53
2023-04-12T18:57:09.160Z,29.38
2023-04-12T18:59:36.477Z,21.17
2023-04-12T19:02:03.667Z,16.95
2023-04-12T19:04:30.680Z,16.60
2023-04-12T19:06:57.855Z,17.70
2023-04-12T19:09:24.859Z,25.85
2023-04-12T19:11:55.493Z,29.95
2023-04-12T19:14:22.747Z,27.67
2023-04-12T19:16:49.747Z,24.30
2023-04-12T19:19:16.797Z,21.13
2023-04-12T19:21:43.830Z,20.05
2023-04-12T19:24:10.862Z,19.25
2023-04-12T19:26:40.122Z,18.75
2023-04-12T19:29:09.948Z,18.15
2023-04-12T19:31:37.092Z,16.30
2023-04-12T19:34:05.562Z,17.15
2023-04-12T19:36:32.706Z,18.25
2023-04-12T19:39:01.604Z,18.00
2023-04-12T19:41:28.763Z,16.85
2023-04-12T19:43:56.216Z,17.20
2023-04-12T19:46:23.355Z,16.77
2023-04-12T19:48:51.381Z,19.77
2023-04-12T19:51:18.489Z,20.15
2023-04-12T19:53:47.824Z,20.60
2023-04-12T19:56:15.132Z,22.77
2023-04-12T19:58:42.189Z,27.20
2023-04-12T20:01:09.934Z,32.55
2023-04-12T20:03:37.717Z,35.50
2023-04-12T20:06:06.123Z,32.88
2023-04-12T20:08:33.205Z,31.77
2023-04-12T20:11:00.286Z,31.38
2023-04-12T20:13:28.688Z,31.27
2023-04-12T20:15:55.658Z,29.35
2023-04-12T20:18:22.631Z,28.25
2023-04-12T20:20:49.739Z,26.75
2023-04-12T20:23:17.111Z,26.33
2023-04-12T20:25:49.092Z,29.23
2023-04-12T20:28:16.382Z,32.58
2023-04-12T20:30:45.339Z,30.15
2023-04-12T20:33:13.017Z,27.67
2023-04-12T20:35:40.992Z,27.02
2023-04-12T20:38:08.548Z,25.35
2023-04-12T20:40:35.939Z,23.38
2023-04-12T20:43:03.765Z,21.95
2023-04-12T20:45:30.851Z,26.65
2023-04-12T20:47:57.925Z,31.05
2023-04-12T20:50:25.357Z,32.38
2023-04-12T20:52:52.492Z,33.38
2023-04-12T20:55:22.785Z,32.72
2023-04-12T20:57:55.849Z,29.55
2023-04-12T21:00:23.818Z,28.70
2023-04-12T21:02:50.990Z,30.52
2023-04-12T21:05:18.040Z,30.08
2023-04-12T21:07:46.925Z,29.10
2023-04-12T21:10:14.789Z,31.10
2023-04-12T21:12:43.163Z,32.60
2023-04-12T21:15:12.022Z,34.38
2023-04-12T21:17:40.610Z,31.67
2023-04-12T21:20:11.555Z,29.33
2023-04-12T21:22:38.821Z,28.30
2023-04-12T21:25:07.567Z,27.60
2023-04-12T21:27:35.218Z,26.88
2023-04-12T21:30:03.510Z,25.90
2023-04-12T21:32:32.427Z,24.60
2023-04-12T21:35:00.090Z,25.02
2023-04-12T21:37:27.013Z,22.80
2023-04-12T21:39:53.895Z,22.48
2023-04-12T21:42:20.963Z,23.15
2023-04-12T21:44:47.836Z,22.45
2023-04-12T21:47:14.772Z,23.05
2023-04-12T21:49:41.627Z,22.67
2023-04-12T21:52:08.553Z,23.15
2023-04-12T21:54:36.920Z,23.35
2023-04-12T21:57:04.074Z,22.45
2023-04-12T21:59:30.964Z,23.95
2023-04-12T22:01:57.947Z,22.88
2023-04-12T22:04:24.815Z,21.65
2023-04-12T22:06:52.617Z,21.55
2023-04-12T22:09:20.277Z,21.52
2023-04-12T22:11:49.047Z,24.05
2023-04-12T22:14:15.978Z,23.70
2023-04-12T22:16:42.950Z,22.58
2023-04-12T22:19:09.871Z,23.40
2023-04-12T22:21:37.277Z,23.48
2023-04-12T22:24:04.230Z,23.67
2023-04-12T22:26:31.559Z,25.85
2023-04-12T22:28:58.494Z,23.08
2023-04-12T22:31:26.211Z,22.42
2023-04-12T22:33:55.355Z,22.25
2023-04-12T22:36:28.448Z,21.00
2023-04-12T22:38:56.273Z,22.02
2023-04-12T22:41:23.176Z,24.63
2023-04-12T22:43:50.131Z,24.58
2023-04-12T22:46:18.722Z,22.80
2023-04-12T22:48:47.730Z,22.35
2023-04-12T22:51:15.675Z,21.67
2023-04-12T22:53:43.527Z,22.20
2023-04-12T22:56:11.241Z,21.60
2023-04-12T22:58:40.178Z,21.83
2023-04-12T23:01:07.504Z,21.65
2023-04-12T23:03:34.529Z,22.88
2023-04-12T23:06:02.028Z,22.40
2023-04-12T23:08:29.339Z,21.85
2023-04-12T23:11:02.941Z,20.85
2023-04-12T23:13:34.827Z,22.98
2023-04-12T23:16:07.771Z,39.55
2023-04-12T23:21:03.978Z,36.33
2023-04-12T23:23:30.857Z,26.65
2023-04-12T23:25:57.749Z,24.00
2023-04-12T23:28:25.822Z,26.77
2023-04-12T23:30:52.803Z,25.05
2023-04-12T23:33:21.875Z,23.10
2023-04-12T23:35:58.557Z,22.23
2023-04-12T23:38:32.144Z,21.85
2023-04-12T23:41:04.095Z,21.15
2023-04-12T23:43:32.619Z,21.50
2023-04-12T23:46:01.460Z,21.38
2023-04-12T23:48:29.054Z,21.02
2023-04-12T23:50:56.305Z,22.58
2023-04-12T23:53:23.293Z,23.50
2023-04-12T23:55:53.455Z,20.67
2023-04-12T23:58:21.534Z,20.60
